Time;durP1;ratioP1;P1;durP2;ratioP2;P2;SDS_P1;SDS_P2;PMS_P1;PMS_P2;Temp;Humidity;BMP_temperature;BMP_pressure;BME280_temperature;BME280_humidity;BME280_pressure;Samples;Min_cycle;Max_cycle;Signal;HPM_P1;HPM_P2
2021/03/03 00:02:10;;;;;;;27.90;19.90;;;;;;;;;;5049618;28;20888;-75
2021/03/03 00:04:36;;;;;;;29.55;19.70;;;;;;;;;;5049081;28;20288;-76
2021/03/03 00:07:02;;;;;;;30.77;20.50;;;;;;;;;;5039029;28;20188;-76
2021/03/03 00:09:28;;;;;;;30.45;21.88;;;;;;;;;;5042618;28;20192;-75
2021/03/03 00:11:54;;;;;;;30.70;20.25;;;;;;;;;;5050436;28;20189;-76
2021/03/03 00:14:21;;;;;;;30.05;20.70;;;;;;;;;;5049409;28;20193;-76
2021/03/03 00:16:47;;;;;;;33.63;20.73;;;;;;;;;;5062610;28;20562;-76
2021/03/03 00:19:13;;;;;;;32.25;20.75;;;;;;;;;;5049338;28;20270;-76
2021/03/03 00:21:39;;;;;;;34.28;21.58;;;;;;;;;;5049375;28;20666;-76
2021/03/03 00:24:06;;;;;;;40.35;22.85;;;;;;;;;;5049276;28;20208;-76
2021/03/03 00:26:32;;;;;;;34.22;21.83;;;;;;;;;;5052533;28;20211;-76
2021/03/03 00:28:58;;;;;;;39.13;22.88;;;;;;;;;;5052933;28;20180;-76
2021/03/03 00:31:24;;;;;;;33.72;21.98;;;;;;;;;;5053110;28;20176;-75
2021/03/03 00:33:50;;;;;;;42.60;25.27;;;;;;;;;;5052143;28;20200;-75
2021/03/03 00:36:16;;;;;;;36.67;22.58;;;;;;;;;;5070522;28;20180;-75
2021/03/03 00:38:42;;;;;;;42.13;23.65;;;;;;;;;;5059432;28;20176;-76
2021/03/03 00:41:08;;;;;;;38.75;23.25;;;;;;;;;;5052894;28;20203;-75
2021/03/03 00:43:34;;;;;;;37.50;22.85;;;;;;;;;;5052357;28;20527;-75
2021/03/03 00:46:01;;;;;;;37.38;23.38;;;;;;;;;;5052752;28;20234;-75
2021/03/03 00:48:27;;;;;;;36.80;23.60;;;;;;;;;;5052818;28;20179;-75
2021/03/03 00:50:53;;;;;;;34.97;22.33;;;;;;;;;;5053230;28;20169;-75
2021/03/03 00:53:19;;;;;;;36.72;23.27;;;;;;;;;;5052341;28;20238;-75
2021/03/03 00:55:50;;;;;;;32.70;21.67;;;;;;;;;;5052722;28;20527;-75
2021/03/03 00:58:16;;;;;;;41.60;23.85;;;;;;;;;;5052944;28;20181;-76
2021/03/03 01:00:42;;;;;;;40.08;22.67;;;;;;;;;;5052600;28;20197;-76
2021/03/03 01:03:08;;;;;;;35.45;22.35;;;;;;;;;;5052208;28;20196;-76
2021/03/03 01:05:34;;;;;;;37.53;22.92;;;;;;;;;;5052061;28;20223;-76
2021/03/03 01:08:00;;;;;;;37.13;22.92;;;;;;;;;;5052523;28;20181;-76
2021/03/03 01:10:26;;;;;;;38.35;24.33;;;;;;;;;;5052336;28;20250;-75
2021/03/03 01:12:52;;;;;;;34.53;22.33;;;;;;;;;;5051988;28;20196;-75
2021/03/03 01:15:18;;;;;;;32.92;19.85;;;;;;;;;;5057963;28;20180;-75
2021/03/03 01:17:44;;;;;;;36.30;23.60;;;;;;;;;;5073024;28;20566;-75
2021/03/03 01:20:10;;;;;;;35.38;21.77;;;;;;;;;;5066921;28;20205;-75
2021/03/03 01:22:36;;;;;;;27.42;19.63;;;;;;;;;;5052360;28;20304;-75
2021/03/03 01:25:03;;;;;;;29.13;19.90;;;;;;;;;;5051877;28;20223;-76
2021/03/03 01:27:29;;;;;;;31.50;21.73;;;;;;;;;;5051300;28;20684;-76
2021/03/03 01:29:55;;;;;;;28.90;20.48;;;;;;;;;;5060467;28;20181;-75
2021/03/03 01:32:21;;;;;;;34.92;22.05;;;;;;;;;;5056477;28;20196;-75
2021/03/03 01:34:47;;;;;;;36.00;21.80;;;;;;;;;;5055540;28;20180;-75
2021/03/03 01:37:13;;;;;;;35.63;23.27;;;;;;;;;;5055182;28;20216;-75
2021/03/03 01:39:39;;;;;;;31.30;21.60;;;;;;;;;;5053085;28;20622;-75
2021/03/03 01:42:05;;;;;;;36.08;23.80;;;;;;;;;;5052619;28;20208;-75
2021/03/03 01:44:31;;;;;;;31.42;20.95;;;;;;;;;;5055496;28;20193;-75
2021/03/03 01:46:57;;;;;;;35.78;23.63;;;;;;;;;;5061754;28;20183;-75
2021/03/03 01:49:23;;;;;;;37.15;22.27;;;;;;;;;;5075122;28;20312;-75
2021/03/03 01:51:49;;;;;;;34.97;21.90;;;;;;;;;;5075966;28;20563;-75
2021/03/03 01:54:15;;;;;;;34.58;22.13;;;;;;;;;;5066935;28;20213;-75
2021/03/03 01:56:41;;;;;;;37.00;22.88;;;;;;;;;;5050973;28;20216;-75
2021/03/03 01:59:07;;;;;;;33.75;23.27;;;;;;;;;;5074027;28;20183;-75
2021/03/03 02:01:33;;;;;;;38.33;23.88;;;;;;;;;;5053919;28;20546;-76
2021/03/03 02:03:59;;;;;;;37.92;23.80;;;;;;;;;;5073370;28;20556;-76
2021/03/03 02:06:38;;;;;;;36.28;23.67;;;;;;;;;;5056352;28;20201;-76
2021/03/03 02:09:15;;;;;;;37.63;23.80;;;;;;;;;;5042858;28;20177;-75
2021/03/03 02:11:47;;;;;;;33.75;22.50;;;;;;;;;;5050995;28;20169;-75
2021/03/03 02:14:17;;;;;;;39.83;23.05;;;;;;;;;;5055009;28;20235;-76
2021/03/03 02:16:43;;;;;;;40.95;24.35;;;;;;;;;;5072124;28;20258;-75
2021/03/03 02:19:15;;;;;;;38.42;22.27;;;;;;;;;;5065732;28;20181;-75
2021/03/03 02:21:45;;;;;;;37.63;23.88;;;;;;;;;;5055530;28;20181;-74
2021/03/03 02:24:14;;;;;;;39.08;23.80;;;;;;;;;;5053640;28;20201;-75
2021/03/03 02:26:41;;;;;;;39.92;25.23;;;;;;;;;;5053894;28;20193;-75
2021/03/03 02:29:11;;;;;;;40.83;24.17;;;;;;;;;;5047329;28;20165;-75
2021/03/03 02:31:39;;;;;;;41.42;24.88;;;;;;;;;;5055046;28;20169;-75
2021/03/03 02:34:05;;;;;;;40.97;25.05;;;;;;;;;;5040175;28;20199;-75
2021/03/03 02:36:31;;;;;;;40.53;22.88;;;;;;;;;;5046971;28;20187;-75
2021/03/03 02:38:58;;;;;;;36.72;24.02;;;;;;;;;;5055367;28;20231;-75
2021/03/03 02:41:24;;;;;;;41.65;25.13;;;;;;;;;;5043881;28;20499;-75
2021/03/03 02:43:51;;;;;;;38.50;24.02;;;;;;;;;;5054297;28;20197;-75
2021/03/03 02:46:17;;;;;;;45.95;26.95;;;;;;;;;;5054958;28;20550;-75
2021/03/03 02:48:45;;;;;;;46.30;26.05;;;;;;;;;;5054305;28;20592;-76
2021/03/03 02:51:12;;;;;;;47.35;25.05;;;;;;;;;;5054674;28;20169;-75
2021/03/03 02:53:40;;;;;;;47.40;26.60;;;;;;;;;;5048621;28;20193;-76
2021/03/03 02:56:06;;;;;;;44.08;26.02;;;;;;;;;;5054307;28;20211;-76
2021/03/03 02:58:32;;;;;;;39.88;23.77;;;;;;;;;;5052320;28;20187;-76
2021/03/03 03:01:01;;;;;;;44.88;25.90;;;;;;;;;;5044356;28;20185;-76
2021/03/03 03:03:28;;;;;;;46.60;26.17;;;;;;;;;;5053873;28;20625;-76
2021/03/03 03:06:01;;;;;;;49.00;25.17;;;;;;;;;;5053729;28;20224;-75
2021/03/03 03:08:28;;;;;;;43.60;24.20;;;;;;;;;;5054447;28;20168;-75
2021/03/03 03:10:54;;;;;;;42.40;25.02;;;;;;;;;;5045339;28;20173;-78
2021/03/03 03:13:21;;;;;;;46.50;25.75;;;;;;;;;;5053965;28;20201;-75
2021/03/03 03:15:49;;;;;;;41.35;25.35;;;;;;;;;;5063246;28;20176;-76
2021/03/03 03:18:22;;;;;;;48.22;26.25;;;;;;;;;;5074651;28;20248;-76
2021/03/03 03:20:48;;;;;;;54.75;27.00;;;;;;;;;;5049845;28;20276;-76
2021/03/03 03:23:15;;;;;;;53.25;26.60;;;;;;;;;;5050960;28;20201;-76
2021/03/03 03:25:41;;;;;;;49.17;27.55;;;;;;;;;;5053211;28;20295;-76
2021/03/03 03:28:07;;;;;;;52.85;27.67;;;;;;;;;;5053328;28;20204;-76
2021/03/03 03:30:33;;;;;;;57.10;28.92;;;;;;;;;;5047371;28;20235;-76
2021/03/03 03:33:00;;;;;;;59.15;28.98;;;;;;;;;;5069004;28;20199;-76
2021/03/03 03:35:27;;;;;;;61.97;30.50;;;;;;;;;;5059237;28;20187;-76
2021/03/03 03:37:53;;;;;;;78.18;31.88;;;;;;;;;;5057067;28;20184;-75
2021/03/03 03:40:20;;;;;;;95.78;36.22;;;;;;;;;;5057876;28;20186;-76
2021/03/03 03:42:46;;;;;;;90.35;36.88;;;;;;;;;;5059963;28;20253;-76
2021/03/03 03:45:13;;;;;;;102.00;39.50;;;;;;;;;;5073480;28;20261;-76
2021/03/03 03:47:40;;;;;;;104.43;36.42;;;;;;;;;;5060347;28;20177;-76
2021/03/03 03:50:06;;;;;;;104.05;37.15;;;;;;;;;;5046549;28;20259;-76
2021/03/03 03:52:34;;;;;;;106.22;41.10;;;;;;;;;;5063469;28;20316;-76
2021/03/03 03:55:00;;;;;;;105.55;40.60;;;;;;;;;;5049235;28;20318;-75
2021/03/03 03:57:26;;;;;;;115.30;39.97;;;;;;;;;;5052849;28;20180;-75
2021/03/03 03:59:52;;;;;;;117.20;42.30;;;;;;;;;;5052228;28;20659;-75
2021/03/03 04:02:18;;;;;;;105.72;41.47;;;;;;;;;;5050918;28;20566;-75
2021/03/03 04:04:44;;;;;;;122.82;38.92;;;;;;;;;;5056569;28;20208;-74
2021/03/03 04:07:11;;;;;;;176.35;44.05;;;;;;;;;;5047324;28;20638;-75
2021/03/03 04:09:37;;;;;;;99.80;39.78;;;;;;;;;;5052787;28;20173;-75
2021/03/03 04:12:03;;;;;;;169.30;43.63;;;;;;;;;;5048724;28;20177;-75
2021/03/03 04:14:29;;;;;;;294.60;43.53;;;;;;;;;;5052756;28;20183;-76
2021/03/03 04:16:55;;;;;;;114.47;40.17;;;;;;;;;;5072337;28;20176;-75
2021/03/03 04:19:21;;;;;;;340.50;47.75;;;;;;;;;;5064999;28;20173;-76
2021/03/03 04:21:47;;;;;;;287.67;44.58;;;;;;;;;;5055488;28;20588;-76
2021/03/03 04:24:14;;;;;;;112.53;38.13;;;;;;;;;;5056726;28;20200;-76
2021/03/03 04:26:40;;;;;;;114.55;40.63;;;;;;;;;;5051458;28;20169;-76
2021/03/03 04:29:06;;;;;;;251.80;44.80;;;;;;;;;;5046784;28;20248;-75
2021/03/03 04:31:32;;;;;;;138.40;41.17;;;;;;;;;;5070774;28;20173;-75
2021/03/03 04:33:58;;;;;;;121.80;40.28;;;;;;;;;;5062238;28;20200;-75
2021/03/03 04:36:24;;;;;;;111.47;37.75;;;;;;;;;;5054017;28;20181;-75
2021/03/03 04:38:50;;;;;;;106.57;33.85;;;;;;;;;;5051306;28;20174;-76
2021/03/03 04:41:16;;;;;;;117.13;34.17;;;;;;;;;;5049170;28;20169;-75
2021/03/03 04:43:42;;;;;;;168.32;36.65;;;;;;;;;;5052668;28;20232;-75
2021/03/03 04:46:08;;;;;;;104.63;34.55;;;;;;;;;;5053014;28;20200;-76
2021/03/03 04:48:34;;;;;;;88.63;35.53;;;;;;;;;;5041583;28;20178;-76
2021/03/03 04:51:00;;;;;;;264.80;38.90;;;;;;;;;;5071400;28;20637;-76
2021/03/03 04:53:26;;;;;;;152.73;34.75;;;;;;;;;;5051181;28;20209;-75
2021/03/03 04:55:52;;;;;;;85.40;32.85;;;;;;;;;;5043065;28;20211;-76
2021/03/03 04:58:18;;;;;;;105.63;33.15;;;;;;;;;;5041328;28;20196;-76
2021/03/03 05:00:44;;;;;;;77.55;29.92;;;;;;;;;;5069549;28;20188;-75
2021/03/03 05:03:10;;;;;;;69.18;29.83;;;;;;;;;;5072346;28;20196;-75
2021/03/03 05:05:36;;;;;;;62.10;29.05;;;;;;;;;;5067207;28;20208;-75
2021/03/03 05:08:02;;;;;;;83.95;32.08;;;;;;;;;;5046107;28;20178;-75
2021/03/03 05:10:28;;;;;;;122.65;34.45;;;;;;;;;;5052017;28;20200;-77
2021/03/03 05:12:54;;;;;;;94.88;33.53;;;;;;;;;;5055091;28;20196;-75
2021/03/03 05:15:20;;;;;;;125.20;34.88;;;;;;;;;;5056407;28;20181;-75
2021/03/03 05:17:46;;;;;;;247.05;39.60;;;;;;;;;;5056646;28;20207;-76
2021/03/03 05:20:13;;;;;;;218.77;37.78;;;;;;;;;;5055698;28;20533;-76
2021/03/03 05:22:39;;;;;;;110.25;33.70;;;;;;;;;;5049271;28;20608;-76
2021/03/03 05:25:05;;;;;;;114.68;34.45;;;;;;;;;;5071395;28;20209;-76
2021/03/03 05:27:31;;;;;;;207.27;39.50;;;;;;;;;;5055749;28;20289;-75
2021/03/03 05:29:57;;;;;;;87.40;32.90;;;;;;;;;;5056425;28;20177;-78
2021/03/03 05:32:23;;;;;;;76.88;33.65;;;;;;;;;;5055448;28;20196;-76
2021/03/03 05:34:49;;;;;;;83.63;32.60;;;;;;;;;;5050512;28;20537;-74
2021/03/03 05:37:15;;;;;;;172.68;39.47;;;;;;;;;;5067014;28;20638;-74
2021/03/03 05:39:41;;;;;;;109.63;34.28;;;;;;;;;;5055581;28;20219;-75
2021/03/03 05:42:07;;;;;;;232.55;39.20;;;;;;;;;;5053079;28;20235;-74
2021/03/03 05:44:33;;;;;;;132.50;32.90;;;;;;;;;;5053785;28;20217;-75
2021/03/03 05:47:02;;;;;;;95.10;32.90;;;;;;;;;;5043894;28;20182;-75
2021/03/03 05:49:28;;;;;;;80.32;31.33;;;;;;;;;;5072389;28;20176;-75
2021/03/03 05:51:55;;;;;;;76.55;32.35;;;;;;;;;;5051018;28;20231;-75
2021/03/03 05:54:24;;;;;;;139.20;33.78;;;;;;;;;;5054686;28;20197;-75
2021/03/03 05:56:50;;;;;;;125.88;34.50;;;;;;;;;;5051853;28;20196;-75
2021/03/03 05:59:17;;;;;;;281.67;39.92;;;;;;;;;;5054095;28;20189;-76
2021/03/03 06:01:44;;;;;;;245.88;39.60;;;;;;;;;;5063264;28;20259;-74
2021/03/03 06:04:11;;;;;;;156.02;39.88;;;;;;;;;;5054364;28;20742;-75
2021/03/03 06:06:44;;;;;;;105.28;36.53;;;;;;;;;;5062208;28;20267;-75
2021/03/03 06:09:10;;;;;;;92.68;34.25;;;;;;;;;;5057151;28;20185;-76
2021/03/03 06:11:37;;;;;;;87.38;34.35;;;;;;;;;;5050917;28;20173;-76
2021/03/03 06:14:03;;;;;;;87.97;31.88;;;;;;;;;;5054892;28;20201;-74
2021/03/03 06:16:29;;;;;;;101.45;36.38;;;;;;;;;;5067647;28;20172;-75
2021/03/03 06:18:56;;;;;;;110.40;37.17;;;;;;;;;;5053982;28;20177;-75
2021/03/03 06:21:26;;;;;;;81.07;35.03;;;;;;;;;;5066957;28;20180;-77
2021/03/03 06:24:18;;;;;;;84.20;32.85;;;;;;;;;;5064868;28;20197;-76
2021/03/03 06:26:55;;;;;;;62.45;29.77;;;;;;;;;;5053488;28;20211;-77
2021/03/03 06:29:21;;;;;;;76.78;28.08;;;;;;;;;;5054955;28;20235;-75
2021/03/03 06:31:47;;;;;;;75.90;29.15;;;;;;;;;;5062237;28;20251;-74
2021/03/03 06:34:14;;;;;;;62.70;28.90;;;;;;;;;;5068457;28;20227;-75
2021/03/03 06:36:42;;;;;;;58.10;28.00;;;;;;;;;;5053395;28;20185;-75
2021/03/03 06:39:24;;;;;;;104.43;28.25;;;;;;;;;;5064274;28;20198;-75
2021/03/03 06:41:51;;;;;;;53.50;26.52;;;;;;;;;;5048824;28;20219;-75
2021/03/03 06:44:18;;;;;;;82.18;27.75;;;;;;;;;;5054490;28;20193;-75
2021/03/03 06:46:44;;;;;;;55.00;27.92;;;;;;;;;;5054738;28;20173;-75
2021/03/03 06:49:23;;;;;;;139.43;30.40;;;;;;;;;;5054513;28;20181;-75
2021/03/03 06:51:50;;;;;;;82.55;30.23;;;;;;;;;;5045001;28;20181;-76
2021/03/03 06:54:20;;;;;;;89.53;30.13;;;;;;;;;;5059216;28;20674;-76
2021/03/03 06:56:48;;;;;;;62.28;29.25;;;;;;;;;;5054561;28;20181;-76
2021/03/03 06:59:32;;;;;;;71.85;29.75;;;;;;;;;;5054635;28;20260;-76
2021/03/03 07:01:59;;;;;;;68.30;31.40;;;;;;;;;;5049587;28;20176;-76
2021/03/03 07:04:25;;;;;;;68.72;31.00;;;;;;;;;;5054135;28;20242;-75
2021/03/03 07:06:52;;;;;;;60.40;30.30;;;;;;;;;;5054304;28;20197;-76
2021/03/03 07:09:18;;;;;;;74.90;29.50;;;;;;;;;;5054149;28;20173;-75
2021/03/03 07:11:45;;;;;;;93.30;30.95;;;;;;;;;;5066591;28;20173;-75
2021/03/03 07:14:15;;;;;;;93.55;34.47;;;;;;;;;;5053967;28;20258;-76
2021/03/03 07:17:00;;;;;;;78.75;32.70;;;;;;;;;;5054520;28;20208;-75
2021/03/03 07:19:26;;;;;;;87.90;35.10;;;;;;;;;;5054058;28;20530;-76
2021/03/03 07:21:52;;;;;;;89.07;34.65;;;;;;;;;;5073004;28;20180;-76
2021/03/03 07:24:19;;;;;;;84.57;36.72;;;;;;;;;;5069215;28;20200;-76
2021/03/03 07:26:46;;;;;;;97.45;36.65;;;;;;;;;;5053540;28;20177;-76
2021/03/03 07:29:12;;;;;;;99.03;36.50;;;;;;;;;;5054179;28;20177;-76
2021/03/03 07:31:39;;;;;;;89.32;34.47;;;;;;;;;;5058796;28;20257;-77
2021/03/03 07:34:07;;;;;;;73.65;34.30;;;;;;;;;;5061423;28;20541;-76
2021/03/03 07:36:36;;;;;;;84.00;33.88;;;;;;;;;;5054007;28;20181;-77
2021/03/03 07:39:06;;;;;;;84.35;32.60;;;;;;;;;;5054013;28;20199;-76
2021/03/03 07:41:52;;;;;;;69.28;32.03;;;;;;;;;;5057622;28;20226;-76
2021/03/03 07:44:20;;;;;;;57.53;27.85;;;;;;;;;;5047087;28;20209;-76
2021/03/03 07:46:50;;;;;;;51.67;27.27;;;;;;;;;;5049767;28;20227;-76
2021/03/03 07:49:21;;;;;;;43.05;25.83;;;;;;;;;;5048510;28;20514;-76
2021/03/03 07:51:48;;;;;;;45.00;25.90;;;;;;;;;;5044562;28;20533;-76
2021/03/03 07:54:14;;;;;;;48.85;25.02;;;;;;;;;;5048782;28;20200;-75
2021/03/03 07:56:40;;;;;;;45.15;25.42;;;;;;;;;;5047057;28;20272;-75
2021/03/03 07:59:07;;;;;;;41.35;23.98;;;;;;;;;;5044928;28;20929;-76
2021/03/03 08:01:36;;;;;;;40.72;22.92;;;;;;;;;;5055172;28;20184;-75
2021/03/03 08:04:02;;;;;;;49.65;25.23;;;;;;;;;;5033619;28;20197;-76
2021/03/03 08:06:36;;;;;;;37.05;23.23;;;;;;;;;;5059901;28;20219;-76
2021/03/03 08:09:05;;;;;;;43.15;24.23;;;;;;;;;;5059943;28;20263;-76
2021/03/03 08:11:41;;;;;;;45.45;25.08;;;;;;;;;;5049314;28;20263;-75
2021/03/03 08:14:25;;;;;;;38.80;24.65;;;;;;;;;;5048172;28;20201;-75
2021/03/03 08:16:55;;;;;;;43.40;25.27;;;;;;;;;;5043465;28;20184;-75
2021/03/03 08:19:21;;;;;;;40.15;24.13;;;;;;;;;;5053192;28;20185;-76
2021/03/03 08:21:48;;;;;;;34.72;24.10;;;;;;;;;;5048227;28;20208;-76
2021/03/03 08:24:33;;;;;;;34.13;22.58;;;;;;;;;;5039516;28;20295;-76
2021/03/03 08:26:59;;;;;;;35.67;22.70;;;;;;;;;;5048231;28;20185;-76
2021/03/03 08:29:27;;;;;;;34.53;21.02;;;;;;;;;;5053569;28;20187;-76
2021/03/03 08:31:53;;;;;;;38.58;22.70;;;;;;;;;;5047098;28;20646;-76
2021/03/03 08:34:19;;;;;;;35.28;23.08;;;;;;;;;;5048459;28;20288;-75
2021/03/03 08:36:46;;;;;;;33.35;22.60;;;;;;;;;;5059916;28;20269;-77
2021/03/03 08:39:12;;;;;;;30.42;20.70;;;;;;;;;;5063904;28;20180;-75
2021/03/03 08:41:39;;;;;;;33.28;21.17;;;;;;;;;;5069164;28;20245;-75
2021/03/03 08:44:11;;;;;;;29.63;20.48;;;;;;;;;;5049816;28;20197;-75
2021/03/03 08:46:41;;;;;;;28.50;19.85;;;;;;;;;;5048688;28;20177;-75
2021/03/03 08:49:07;;;;;;;32.53;21.55;;;;;;;;;;5048218;28;20216;-75
2021/03/03 08:51:34;;;;;;;30.25;20.23;;;;;;;;;;5048829;28;20231;-76
2021/03/03 08:54:04;;;;;;;25.77;20.45;;;;;;;;;;5048584;28;20231;-76
2021/03/03 08:56:42;;;;;;;26.38;20.23;;;;;;;;;;5045570;28;20595;-76
2021/03/03 08:59:35;;;;;;;31.15;21.00;;;;;;;;;;5036530;28;20661;-76
2021/03/03 09:02:07;;;;;;;28.02;19.75;;;;;;;;;;5048230;28;20735;-76
2021/03/03 09:04:34;;;;;;;32.60;20.90;;;;;;;;;;5048423;28;20188;-76
2021/03/03 09:07:00;;;;;;;34.47;22.70;;;;;;;;;;5042906;28;20264;-76
2021/03/03 09:09:34;;;;;;;31.67;21.23;;;;;;;;;;5041423;28;20169;-76
2021/03/03 09:12:05;;;;;;;31.88;21.63;;;;;;;;;;5048200;28;20185;-76
2021/03/03 09:14:31;;;;;;;29.90;21.58;;;;;;;;;;5038866;28;20181;-76
2021/03/03 09:16:59;;;;;;;31.98;22.50;;;;;;;;;;5048263;28;20537;-76
2021/03/03 09:19:25;;;;;;;27.73;21.40;;;;;;;;;;5048864;28;20237;-76
2021/03/03 09:21:52;;;;;;;31.13;22.42;;;;;;;;;;5046949;28;20252;-75
2021/03/03 09:24:18;;;;;;;29.40;21.77;;;;;;;;;;5048356;28;20250;-76
2021/03/03 09:26:44;;;;;;;31.70;22.77;;;;;;;;;;5052058;28;20191;-76
2021/03/03 09:29:33;;;;;;;28.20;21.23;;;;;;;;;;5059412;28;20178;-76
2021/03/03 09:32:04;;;;;;;31.80;21.52;;;;;;;;;;5054081;28;20243;-76
2021/03/03 09:34:32;;;;;;;29.10;20.95;;;;;;;;;;5048017;28;20181;-76
2021/03/03 09:37:00;;;;;;;28.67;21.98;;;;;;;;;;5048269;28;20181;-76
2021/03/03 09:39:26;;;;;;;34.30;21.63;;;;;;;;;;5047617;28;20286;-76
2021/03/03 09:41:56;;;;;;;27.77;21.05;;;;;;;;;;5037287;28;20177;-76
2021/03/03 09:44:22;;;;;;;26.95;21.58;;;;;;;;;;5041892;28;20202;-76
2021/03/03 09:46:56;;;;;;;44.95;22.45;;;;;;;;;;5055752;28;20181;-76
2021/03/03 09:49:26;;;;;;;24.52;20.40;;;;;;;;;;5048535;28;20254;-76
2021/03/03 09:51:52;;;;;;;24.27;19.50;;;;;;;;;;5049148;28;20562;-76
2021/03/03 09:54:32;;;;;;;25.02;19.55;;;;;;;;;;5047387;28;20223;-76
2021/03/03 09:57:08;;;;;;;20.45;18.23;;;;;;;;;;5050943;28;20185;-76
2021/03/03 09:59:35;;;;;;;21.77;19.33;;;;;;;;;;5051598;28;20184;-75
2021/03/03 10:02:01;;;;;;;21.63;19.33;;;;;;;;;;5043112;28;20432;-76
2021/03/03 10:04:28;;;;;;;20.07;18.00;;;;;;;;;;5050079;28;21330;-77
2021/03/03 10:06:54;;;;;;;23.10;19.87;;;;;;;;;;5056653;28;20421;-76
2021/03/03 10:09:21;;;;;;;21.83;19.73;;;;;;;;;;5047501;28;20482;-77
2021/03/03 10:11:47;;;;;;;22.20;19.73;;;;;;;;;;5051189;28;20421;-76
2021/03/03 10:14:14;;;;;;;21.20;19.20;;;;;;;;;;5047502;28;20458;-76
2021/03/03 10:16:40;;;;;;;22.80;20.50;;;;;;;;;;5050402;28;20414;-76
2021/03/03 10:19:08;;;;;;;23.10;20.90;;;;;;;;;;5042396;28;20430;-76
2021/03/03 10:21:38;;;;;;;23.33;20.90;;;;;;;;;;5051517;28;20407;-76
2021/03/03 10:24:15;;;;;;;22.87;20.77;;;;;;;;;;5039463;28;20459;-77
2021/03/03 10:26:45;;;;;;;22.47;20.33;;;;;;;;;;5040598;28;20466;-77
2021/03/03 10:29:12;;;;;;;22.47;20.40;;;;;;;;;;5050061;28;20427;-77
2021/03/03 10:31:41;;;;;;;26.53;22.70;;;;;;;;;;5049893;28;20497;-76
2021/03/03 10:34:11;;;;;;;23.63;21.07;;;;;;;;;;5040602;28;20782;-75
2021/03/03 10:36:40;;;;;;;24.30;22.00;;;;;;;;;;5049607;28;20404;-76
2021/03/03 10:39:07;;;;;;;23.20;20.80;;;;;;;;;;5051862;28;20433;-77
2021/03/03 10:41:33;;;;;;;24.90;22.20;;;;;;;;;;5051382;28;20434;-76
2021/03/03 10:44:00;;;;;;;22.83;20.27;;;;;;;;;;5050545;28;20439;-75
2021/03/03 10:46:26;;;;;;;25.63;23.03;;;;;;;;;;5048724;28;21160;-76
2021/03/03 10:48:53;;;;;;;25.97;23.53;;;;;;;;;;5049568;28;20422;-76
2021/03/03 10:51:20;;;;;;;26.77;24.30;;;;;;;;;;5050072;28;21030;-76
2021/03/03 10:53:46;;;;;;;24.37;21.87;;;;;;;;;;5050405;28;20435;-76
2021/03/03 10:56:28;;;;;;;25.20;22.83;;;;;;;;;;5051164;28;20916;-77
2021/03/03 10:59:01;;;;;;;24.20;21.63;;;;;;;;;;5045346;28;20424;-78
2021/03/03 11:02:01;;;;;;;23.77;21.30;;;;;;;;;;5042278;28;20500;-77
2021/03/03 11:04:46;;;;;;;21.60;19.37;;;;;;;;;;5029031;28;20494;-76
2021/03/03 11:07:13;;;;;;;22.27;20.13;;;;;;;;;;5043307;28;20805;-76
2021/03/03 11:09:39;;;;;;;21.50;19.63;;;;;;;;;;5045095;28;20421;-77
2021/03/03 11:12:06;;;;;;;21.10;18.93;;;;;;;;;;5063614;28;20520;-77
2021/03/03 11:14:32;;;;;;;22.20;19.20;;;;;;;;;;5056570;28;20412;-75
2021/03/03 11:16:59;;;;;;;22.53;20.13;;;;;;;;;;5054406;28;21027;-76
2021/03/03 11:19:27;;;;;;;22.27;19.87;;;;;;;;;;5058552;28;20433;-75
2021/03/03 11:21:56;;;;;;;23.63;20.80;;;;;;;;;;5064565;28;20420;-77
2021/03/03 11:24:23;;;;;;;22.20;19.97;;;;;;;;;;5050628;28;20973;-76
2021/03/03 11:26:49;;;;;;;23.03;19.90;;;;;;;;;;5046424;28;20427;-76
2021/03/03 11:29:15;;;;;;;21.43;19.43;;;;;;;;;;5043548;28;20419;-76
2021/03/03 11:31:42;;;;;;;20.53;18.73;;;;;;;;;;5042146;28;20424;-78
2021/03/03 11:34:08;;;;;;;20.97;18.77;;;;;;;;;;5046874;28;20470;-77
2021/03/03 11:36:35;;;;;;;19.93;17.80;;;;;;;;;;5047249;28;20493;-76
2021/03/03 11:39:01;;;;;;;21.63;18.33;;;;;;;;;;5050235;28;20824;-77
2021/03/03 11:41:27;;;;;;;21.10;18.90;;;;;;;;;;5049005;28;20431;-76
2021/03/03 11:43:53;;;;;;;20.87;19.00;;;;;;;;;;5045009;28;20473;-77
2021/03/03 11:46:19;;;;;;;20.37;18.37;;;;;;;;;;5046248;28;20507;-77
2021/03/03 11:48:45;;;;;;;21.00;18.87;;;;;;;;;;5050396;28;20472;-77
2021/03/03 11:51:12;;;;;;;21.63;19.20;;;;;;;;;;5054237;28;20503;-75
2021/03/03 11:53:38;;;;;;;22.13;19.60;;;;;;;;;;5030187;28;20447;-76
2021/03/03 11:56:04;;;;;;;22.33;19.83;;;;;;;;;;5047530;28;20919;-78
2021/03/03 11:58:30;;;;;;;21.83;19.53;;;;;;;;;;5049873;28;20501;-77
2021/03/03 12:00:56;;;;;;;21.83;19.63;;;;;;;;;;5044365;28;20429;-76
2021/03/03 12:03:22;;;;;;;21.77;19.00;;;;;;;;;;5037522;28;20440;-78
2021/03/03 12:05:48;;;;;;;22.53;19.03;;;;;;;;;;5042894;28;20805;-78
2021/03/03 12:08:14;;;;;;;20.97;18.87;;;;;;;;;;5046066;28;20899;-77
2021/03/03 12:10:40;;;;;;;24.40;19.10;;;;;;;;;;5048810;28;20478;-76
2021/03/03 12:13:06;;;;;;;23.17;20.03;;;;;;;;;;5048309;28;21050;-77
2021/03/03 12:15:32;;;;;;;23.87;18.60;;;;;;;;;;5047783;28;20420;-77
2021/03/03 12:17:59;;;;;;;24.57;18.97;;;;;;;;;;5048010;28;20428;-76
2021/03/03 12:20:27;;;;;;;21.50;18.47;;;;;;;;;;5047863;28;20501;-76
2021/03/03 12:22:53;;;;;;;21.37;19.07;;;;;;;;;;5034175;28;20452;-78
2021/03/03 12:25:19;;;;;;;23.00;20.33;;;;;;;;;;5044307;28;20462;-77
2021/03/03 12:27:46;;;;;;;22.17;19.80;;;;;;;;;;5048874;28;20431;-76
2021/03/03 12:30:12;;;;;;;21.13;18.83;;;;;;;;;;5051902;28;20438;-77
2021/03/03 12:32:38;;;;;;;21.17;18.93;;;;;;;;;;5069215;28;20503;-77
2021/03/03 12:35:05;;;;;;;22.57;18.27;;;;;;;;;;5050172;28;20431;-77
2021/03/03 12:37:31;;;;;;;20.63;18.53;;;;;;;;;;5054707;28;20633;-77
2021/03/03 12:39:57;;;;;;;21.87;19.60;;;;;;;;;;5048447;28;20924;-78
2021/03/03 12:42:23;;;;;;;21.13;18.90;;;;;;;;;;5057224;28;20484;-78
2021/03/03 12:44:49;;;;;;;21.83;19.50;;;;;;;;;;5050893;28;20463;-78
2021/03/03 12:47:16;;;;;;;21.27;19.13;;;;;;;;;;5058627;28;20426;-77
2021/03/03 12:49:42;;;;;;;23.63;21.23;;;;;;;;;;5049883;28;20459;-77
2021/03/03 12:52:08;;;;;;;22.00;19.70;;;;;;;;;;5044019;28;20447;-77
2021/03/03 12:54:34;;;;;;;21.97;19.63;;;;;;;;;;5048120;28;20827;-77
2021/03/03 12:57:00;;;;;;;21.97;19.67;;;;;;;;;;5049245;28;20788;-77
2021/03/03 12:59:26;;;;;;;20.60;18.43;;;;;;;;;;5048661;28;20932;-77
2021/03/03 13:01:52;;;;;;;21.60;19.37;;;;;;;;;;5048835;28;20435;-77
2021/03/03 13:04:18;;;;;;;23.57;21.07;;;;;;;;;;5048063;28;20448;-78
2021/03/03 13:06:44;;;;;;;22.57;20.37;;;;;;;;;;5045942;28;20458;-77
2021/03/03 13:09:10;;;;;;;26.30;20.97;;;;;;;;;;5048259;28;20776;-78
2021/03/03 13:11:36;;;;;;;22.10;18.97;;;;;;;;;;5053029;28;20422;-77
2021/03/03 13:14:02;;;;;;;25.23;20.67;;;;;;;;;;5066048;28;20438;-77
2021/03/03 13:16:28;;;;;;;26.23;20.57;;;;;;;;;;5048231;28;20449;-77
2021/03/03 13:18:54;;;;;;;27.60;20.23;;;;;;;;;;5048787;28;20419;-76
2021/03/03 13:21:20;;;;;;;23.43;19.43;;;;;;;;;;5045700;28;20439;-77
2021/03/03 13:23:46;;;;;;;24.97;20.90;;;;;;;;;;5046989;28;20448;-79
2021/03/03 13:26:12;;;;;;;24.80;20.70;;;;;;;;;;5050988;28;20478;-76
2021/03/03 13:28:39;;;;;;;25.77;20.77;;;;;;;;;;5052394;28;20470;-77
2021/03/03 13:31:05;;;;;;;25.53;21.90;;;;;;;;;;5062945;28;20926;-76
2021/03/03 13:33:31;;;;;;;26.10;21.37;;;;;;;;;;5071958;28;20434;-76
2021/03/03 13:35:57;;;;;;;25.50;22.70;;;;;;;;;;5072224;28;20949;-77
2021/03/03 13:38:23;;;;;;;23.20;20.80;;;;;;;;;;5061373;28;20473;-77
2021/03/03 13:40:49;;;;;;;26.00;21.30;;;;;;;;;;5052729;28;20951;-77
2021/03/03 13:43:16;;;;;;;23.70;21.20;;;;;;;;;;5051295;28;20447;-77
2021/03/03 13:45:42;;;;;;;25.10;21.33;;;;;;;;;;5052437;28;20474;-77
2021/03/03 13:48:08;;;;;;;23.97;20.43;;;;;;;;;;5051567;28;20808;-76
2021/03/03 13:50:34;;;;;;;30.20;21.67;;;;;;;;;;5052248;28;20422;-76
2021/03/03 13:53:01;;;;;;;24.60;21.03;;;;;;;;;;5050962;28;20451;-77
2021/03/03 13:55:27;;;;;;;22.97;20.40;;;;;;;;;;5044994;28;20424;-77
2021/03/03 13:57:53;;;;;;;28.50;22.10;;;;;;;;;;5063827;28;20808;-77
2021/03/03 14:00:19;;;;;;;25.73;21.70;;;;;;;;;;5050696;28;20788;-76
2021/03/03 14:02:47;;;;;;;26.67;22.00;;;;;;;;;;5050379;28;20539;-76
2021/03/03 14:05:13;;;;;;;25.27;21.50;;;;;;;;;;5046916;28;20480;-77
2021/03/03 14:07:39;;;;;;;25.77;22.00;;;;;;;;;;5049069;28;20447;-77
2021/03/03 14:10:06;;;;;;;29.30;21.47;;;;;;;;;;5050166;28;20420;-78
2021/03/03 14:12:32;;;;;;;24.77;22.10;;;;;;;;;;5051261;28;20952;-75
2021/03/03 14:14:58;;;;;;;26.97;21.97;;;;;;;;;;5051330;28;20416;-76
2021/03/03 14:17:24;;;;;;;27.03;22.50;;;;;;;;;;5050733;28;20427;-77
2021/03/03 14:19:50;;;;;;;25.10;22.10;;;;;;;;;;5051233;28;20411;-76